B. E. Lindholm — WCY9878 — position and weather

sailwx.info

Track history (hours):
 
Tides and Currents Weather Stations Pressure Air Temp Water Temp Dewpoint Dewpoint Depression Visibility Wind Speed Wind Dir Waves Ship Positions

B. E. Lindholm

Owner: WEEKS MARINE, INC., CRANFORD, NJ. More information available from US FCC via Universal Licensing System.

Last reported at 2018-Jun-22 12:37 UTC. Time now 2018-Jun-22 13:21 UTC.
Position N 39°57' W 074°02'.

Length 91 m; draft 5.2 m.

Type: Dredging. MMSI: 368954410.

Date/timePositionNaut miles runAvg speedWind from/ knotsBaromVisibWave heightAir tempDewpointWater temp
2018-Jun-22 12:37N 39°57' W 074°02'2 8.7
2018-Jun-22 12:24N 39°55' W 074°02'0 0.8
2018-Jun-22 12:00N 39°55' W 074°03'0 0.1
2018-Jun-22 11:30N 39°55' W 074°03'0 0.7
2018-Jun-22 11:00N 39°55' W 074°03'3 7.0
2018-Jun-22 10:30N 39°59' W 074°03'2 2.8
2018-Jun-22 09:53N 40°01' W 074°03'0 0.0
2018-Jun-22 09:30N 40°01' W 074°03'0 0.0
2018-Jun-22 08:58N 40°01' W 074°03'1 2.6
2018-Jun-22 08:29N 39°59' W 074°02'4 8.4
2018-Jun-22 08:01N 39°55' W 074°03'0 0.6
2018-Jun-22 07:31N 39°55' W 074°02'0 0.7
2018-Jun-22 07:00N 39°55' W 074°03'0 0.1
2018-Jun-22 06:31N 39°55' W 074°03'0 0.8
2018-Jun-22 05:58N 39°55' W 074°02'510.8
2018-Jun-22 05:30N 40°00' W 074°03'0 0.3
2018-Jun-22 04:46N 40°01' W 074°03'0 0.0
2018-Jun-22 04:30N 40°01' W 074°03'0 0.1
2018-Jun-22 04:00N 40°01' W 074°03'2 3.3
2018-Jun-22 03:31N 39°59' W 074°03'4 7.0
2018-Jun-22 03:00N 39°55' W 074°03'0 0.2
2018-Jun-22 02:19N 39°55' W 074°03'0 0.6
2018-Jun-22 02:00N 39°55' W 074°03'0 0.4
2018-Jun-22 01:27N 39°55' W 074°02'5 9.6
2018-Jun-22 00:55N 40°01' W 074°03'0 0.0
2018-Jun-22 00:13N 40°01' W 074°03'0 0.2
2018-Jun-22 00:00N 40°01' W 074°03'0 0.1
2018-Jun-21 23:26N 40°01' W 074°03'1 0.8
2018-Jun-21 22:39N 40°00' W 074°03'511.2
2018-Jun-21 22:13N 39°55' W 074°03'0 0.6
2018-Jun-21 21:56N 39°55' W 074°03'0 0.4
2018-Jun-21 21:30N 39°55' W 074°03'2 4.7
2018-Jun-21 21:00N 39°58' W 074°02'3 1.1
2018-Jun-21 18:38N 39°55' W 074°03'0 0.8
2018-Jun-21 18:28N 39°55' W 074°03'0 0.6
2018-Jun-21 18:00N 39°55' W 074°03'0 0.1
2018-Jun-21 17:22N 39°55' W 074°03'0 0.4
2018-Jun-21 16:53N 39°55' W 074°03'0 0.2
2018-Jun-21 16:13N 39°55' W 074°03'0 0.7
2018-Jun-21 15:47N 39°55' W 074°02'0 0.6
2018-Jun-21 15:29N 39°55' W 074°03'0 0.8
2018-Jun-21 14:58N 39°55' W 074°03'0 0.7
2018-Jun-21 14:30N 39°55' W 074°03'0 0.1
2018-Jun-21 13:59N 39°55' W 074°03'3510.4
2018-Jun-21 10:39N 40°30' W 073°56'214.4
2018-Jun-21 10:30N 40°31' W 073°59'712.9
2018-Jun-21 10:00N 40°36' W 074°03'3 7.0
2018-Jun-21 09:30N 40°40' W 074°04'0 0.0
2018-Jun-21 08:58N 40°40' W 074°04'0 0.0
2018-Jun-21 08:28N 40°40' W 074°04'0 0.0
2018-Jun-21 07:58N 40°40' W 074°04'0 0.0
2018-Jun-21 07:28N 40°40' W 074°04'0 0.0
2018-Jun-21 06:58N 40°40' W 074°04'0 0.0
2018-Jun-21 06:28N 40°40' W 074°04'0 0.0
2018-Jun-21 05:58N 40°40' W 074°04'0 0.0
2018-Jun-21 05:28N 40°40' W 074°04'0 0.0
2018-Jun-21 04:58N 40°40' W 074°04'0 0.0
2018-Jun-21 04:28N 40°40' W 074°04'0 0.0
2018-Jun-21 03:58N 40°40' W 074°04'0 0.0
2018-Jun-21 03:28N 40°40' W 074°04'0 0.0
2018-Jun-21 02:58N 40°40' W 074°04'0 0.0
2018-Jun-21 02:28N 40°40' W 074°04'0 0.0
2018-Jun-21 01:58N 40°40' W 074°04'0 0.0
2018-Jun-21 01:25N 40°40' W 074°04'0 0.1
2018-Jun-21 01:01N 40°40' W 074°04'2 4.8
2018-Jun-21 00:30N 40°39' W 074°07'3 0.4
2018-Jun-20 15:35N 40°38' W 074°12'0 0.1
2018-Jun-20 15:29N 40°38' W 074°12'0 0.0
2018-Jun-20 14:59N 40°38' W 074°12'0 0.0
2018-Jun-20 13:29N 40°38' W 074°12'0 0.0
2018-Jun-20 12:33N 40°38' W 074°12'0 0.0
2018-Jun-20 12:30N 40°38' W 074°12'9 5.7
2018-Jun-20 10:55N 40°29' W 074°14'5 8.5
2018-Jun-20 10:22N 40°30' W 074°08'511.1
2018-Jun-20 09:57N 40°29' W 074°02'0 1.1
2018-Jun-20 09:30N 40°29' W 074°01'2 5.0
2018-Jun-20 09:00N 40°28' W 073°58'26 6.4
2018-Jun-20 04:57N 40°03' W 074°01'3 5.1
2018-Jun-20 04:27N 40°01' W 074°03'0 0.0
2018-Jun-20 04:00N 40°01' W 074°03'0 0.0
2018-Jun-20 03:30N 40°01' W 074°03'0 0.0
2018-Jun-20 02:59N 40°01' W 074°03'0 0.3
2018-Jun-20 02:29N 40°01' W 074°03'610.2
2018-Jun-20 01:57N 39°55' W 074°03'0 0.7
2018-Jun-20 01:30N 39°55' W 074°03'0 0.3
2018-Jun-20 00:54N 39°55' W 074°03'0 0.3
2018-Jun-20 00:29N 39°55' W 074°03'1 1.8
2018-Jun-20 00:00N 39°56' W 074°03'5 9.1
2018-Jun-19 23:30N 40°01' W 074°03'0 0.1
2018-Jun-19 23:00N 40°01' W 074°03'0 0.0
2018-Jun-19 22:30N 40°01' W 074°03'0 0.1
2018-Jun-19 22:00N 40°01' W 074°03'6 6.2
2018-Jun-19 21:05N 39°55' W 074°03'0 1.0
2018-Jun-19 21:00N 39°55' W 074°03'0 0.6
2018-Jun-19 20:29N 39°55' W 074°03'0 0.5
2018-Jun-19 19:59N 39°55' W 074°02'0 0.6
2018-Jun-19 19:30N 39°55' W 074°03'0 0.3
2018-Jun-19 18:55N 39°55' W 074°03'0 0.6
2018-Jun-19 18:29N 39°55' W 074°03'0 0.4
2018-Jun-19 18:00N 39°55' W 074°02'5 8.2
2018-Jun-19 17:22N 40°01' W 074°03'5 2.4
2018-Jun-19 15:11N 39°55' W 074°02'0 1.0
2018-Jun-19 15:00N 39°55' W 074°03'0 0.5
2018-Jun-19 14:11N 39°55' W 074°03'0 0.2
2018-Jun-19 13:59N 39°55' W 074°03'0 0.6
2018-Jun-19 13:30N 39°55' W 074°03'0 0.0
2018-Jun-19 08:10N 39°55' W 074°03'0 0.8
2018-Jun-19 08:00N 39°55' W 074°03'0 0.6
2018-Jun-19 07:26N 39°55' W 074°03'0 0.2
2018-Jun-19 07:00N 39°55' W 074°03'0 0.5
2018-Jun-19 06:22N 39°55' W 074°03'0 0.7
2018-Jun-19 05:52N 39°55' W 074°03'1 3.4
2018-Jun-19 05:29N 39°57' W 074°02'2 0.5
2018-Jun-19 01:39N 39°55' W 074°03'0 0.7
2018-Jun-19 01:26N 39°55' W 074°03'0 0.6
2018-Jun-19 00:58N 39°55' W 074°03'3 5.4
2018-Jun-19 00:30N 39°58' W 074°02'3 5.2
2018-Jun-18 23:59N 40°01' W 074°03'0 0.0
2018-Jun-18 23:24N 40°01' W 074°03'0 0.0
2018-Jun-18 22:32N 40°01' W 074°03'0 0.6
2018-Jun-18 22:25N 40°01' W 074°03'6 9.9
2018-Jun-18 21:50N 39°55' W 074°03'0 0.2
2018-Jun-18 21:18N 39°55' W 074°03'0 0.5
2018-Jun-18 20:59N 39°55' W 074°03'0 0.4
2018-Jun-18 20:25N 39°55' W 074°03'0 0.8
2018-Jun-18 19:59N 39°55' W 074°03'0 0.5
2018-Jun-18 19:07N 39°56' W 074°03'0 0.9
2018-Jun-18 18:54N 39°56' W 074°03'0 0.7
2018-Jun-18 18:30N 39°55' W 074°03'4 2.5
2018-Jun-18 16:55N 39°59' W 074°02'1 1.9
2018-Jun-18 16:20N 40°01' W 074°03'0 0.6
2018-Jun-18 15:55N 40°01' W 074°03'0 0.0
2018-Jun-18 15:27N 40°01' W 074°03'0 0.0
2018-Jun-18 15:00N 40°01' W 074°03'5 4.3
2018-Jun-18 13:47N 39°55' W 074°03'0 0.2
2018-Jun-18 12:31N 39°55' W 074°02'0 0.4
2018-Jun-18 12:30N 39°55' W 074°02'0 0.7
2018-Jun-18 12:00N 39°55' W 074°03'1 1.3
2018-Jun-18 11:30N 39°56' W 074°02'5 9.7
2018-Jun-18 11:00N 40°01' W 074°03'0 0.0
2018-Jun-18 10:30N 40°01' W 074°03'0 0.0
2018-Jun-18 10:00N 40°01' W 074°03'0 0.0
2018-Jun-18 09:29N 40°01' W 074°03'0 0.6
2018-Jun-18 09:00N 40°01' W 074°03'610.9
2018-Jun-18 08:30N 39°55' W 074°03'0 0.2
2018-Jun-18 08:00N 39°55' W 074°03'0 0.1
2018-Jun-18 07:29N 39°55' W 074°03'0 0.5
2018-Jun-18 07:00N 39°55' W 074°03'0 0.6
2018-Jun-18 06:30N 39°55' W 074°03'1 2.5
2018-Jun-18 06:01N 39°57' W 074°02'4 7.9
2018-Jun-18 05:29N 40°01' W 074°02'0 0.4
2018-Jun-18 04:57N 40°01' W 074°03'0 0.0
2018-Jun-18 03:51N 40°01' W 074°03'5 5.6
2018-Jun-18 02:53N 39°55' W 074°03'0 0.3
2018-Jun-18 02:21N 39°55' W 074°03'0 0.5
2018-Jun-18 01:45N 39°55' W 074°03'0 0.7
2018-Jun-18 01:30N 39°55' W 074°03'0 0.6
2018-Jun-18 01:00N 39°55' W 074°03'0 0.0
2018-Jun-17 21:47N 39°56' W 074°03'0 0.4
2018-Jun-17 21:30N 39°55' W 074°03'0 0.6
2018-Jun-17 20:57N 39°55' W 074°03'0 0.1
2018-Jun-17 20:30N 39°55' W 074°03'0 0.5
2018-Jun-17 19:59N 39°55' W 074°03'3 6.3
2018-Jun-17 19:30N 39°58' W 074°02'2 4.4
2018-Jun-17 18:59N 40°01' W 074°03'0 0.0
2018-Jun-17 18:30N 40°01' W 074°03'0 0.0
2018-Jun-17 18:00N 40°01' W 074°03'0 0.2
2018-Jun-17 17:30N 40°01' W 074°03'5 9.8
2018-Jun-17 16:59N 39°55' W 074°03'0 0.8
2018-Jun-17 16:28N 39°55' W 074°03'0 0.4
2018-Jun-17 16:00N 39°55' W 074°03'0 0.5
2018-Jun-17 15:30N 39°55' W 074°03'2 4.2
2018-Jun-17 15:00N 39°57' W 074°02'3 3.8
2018-Jun-17 14:11N 40°01' W 074°03'0 0.0
2018-Jun-17 13:59N 40°01' W 074°03'0 0.1
2018-Jun-17 13:10N 40°01' W 074°03'0 0.2
2018-Jun-17 13:00N 40°01' W 074°03'2 4.6
2018-Jun-17 12:29N 39°58' W 074°02'3 5.7
2018-Jun-17 11:58N 39°55' W 074°03'0 0.6
2018-Jun-17 11:30N 39°55' W 074°03'0 0.2
2018-Jun-17 10:58N 39°55' W 074°03'0 0.7
2018-Jun-17 10:22N 39°55' W 074°02'510.6
2018-Jun-17 09:53N 40°00' W 074°03'0 0.4
2018-Jun-17 09:28N 40°01' W 074°03'6 2.6
2018-Jun-17 07:21N 39°55' W 074°03'0 0.7
2018-Jun-17 06:58N 39°55' W 074°03'0 0.4
2018-Jun-17 06:27N 39°55' W 074°02'0 0.6
2018-Jun-17 05:44N 39°55' W 074°03'0 0.8
2018-Jun-17 05:26N 39°55' W 074°03'0 0.6
2018-Jun-17 05:00N 39°55' W 074°03'1 2.7
2018-Jun-17 04:29N 39°57' W 074°02'4 8.0
2018-Jun-17 04:00N 40°01' W 074°03'0 0.0
2018-Jun-17 03:30N 40°01' W 074°03'6 2.3
2018-Jun-17 01:06N 39°55' W 074°03'0 0.7
2018-Jun-17 00:57N 39°55' W 074°03'0 0.6
2018-Jun-17 00:27N 39°55' W 074°03'2 4.8
2018-Jun-17 00:00N 39°57' W 074°02'3 6.2
2018-Jun-16 23:29N 40°01' W 074°03'0 0.0
2018-Jun-16 23:00N 40°01' W 074°03'0 0.0
2018-Jun-16 22:30N 40°01' W 074°03'0 0.0
2018-Jun-16 22:00N 40°01' W 074°03'0 0.4
2018-Jun-16 21:30N 40°01' W 074°03'510.5
2018-Jun-16 21:00N 39°55' W 074°02'0 0.5
2018-Jun-16 20:21N 39°55' W 074°03'0 0.3
2018-Jun-16 19:59N 39°55' W 074°03'0 0.6
2018-Jun-16 19:30N 39°55' W 074°03'1 1.1
2018-Jun-16 19:00N 39°56' W 074°02'5 9.6
2018-Jun-16 18:30N 40°01' W 074°03'0 0.1
2018-Jun-16 18:00N 40°01' W 074°03'0 0.0
2018-Jun-16 17:30N 40°01' W 074°03'0 0.0
2018-Jun-16 16:58N 40°01' W 074°03'5 6.5
2018-Jun-16 16:11N 39°55' W 074°03'0 1.2
2018-Jun-16 16:00N 39°55' W 074°03'0 0.2
2018-Jun-16 15:29N 39°55' W 074°03'0 0.7
2018-Jun-16 15:00N 39°55' W 074°02'0 0.5
2018-Jun-16 14:26N 39°55' W 074°03'0 0.1
2018-Jun-16 13:54N 39°55' W 074°03'0 0.6
2018-Jun-16 13:22N 39°55' W 074°02'3 7.8
2018-Jun-16 12:57N 39°59' W 074°02'2 1.7
2018-Jun-16 11:49N 40°01' W 074°03'0 0.0
2018-Jun-16 11:30N 40°01' W 074°03'1 0.9
2018-Jun-16 10:55N 40°00' W 074°02'511.2
2018-Jun-16 10:30N 39°56' W 074°03'1 1.4
2018-Jun-16 10:00N 39°55' W 074°03'0 0.8
2018-Jun-16 09:30N 39°55' W 074°03'0 0.2
2018-Jun-16 09:00N 39°55' W 074°03'0 0.2
2018-Jun-16 08:30N 39°55' W 074°03'0 0.7
2018-Jun-16 08:00N 39°55' W 074°02'0 0.6
2018-Jun-16 07:28N 39°55' W 074°03'0 0.1
2018-Jun-16 07:00N 39°55' W 074°03'0 0.7
2018-Jun-16 06:30N 39°55' W 074°02'5 8.7
2018-Jun-16 05:55N 40°01' W 074°03'5 2.3
2018-Jun-16 03:39N 39°55' W 074°02'0 0.9
2018-Jun-16 03:27N 39°55' W 074°03'0 0.7
2018-Jun-16 02:59N 39°55' W 074°03'0 0.6
2018-Jun-16 02:29N 39°55' W 074°03'0 0.1
2018-Jun-16 01:51N 39°55' W 074°03'0 0.8
2018-Jun-16 01:28N 39°55' W 074°03'1 1.2
2018-Jun-16 00:48N 39°56' W 074°02'310.6
2018-Jun-16 00:29N 39°59' W 074°02'2 2.0
2018-Jun-15 23:40N 40°01' W 074°03'5 3.2
2018-Jun-15 22:03N 39°55' W 074°03'0 2.3
2018-Jun-15 22:00N 39°55' W 074°03'0 0.6
2018-Jun-15 21:30N 39°55' W 074°03'0 0.9
2018-Jun-15 20:58N 39°55' W 074°03'0 0.6
2018-Jun-15 20:30N 39°55' W 074°03'0 0.1
2018-Jun-15 19:54N 39°55' W 074°03'0 0.1
2018-Jun-15 19:12N 39°55' W 074°03'0 0.7
2018-Jun-15 18:59N 39°55' W 074°03'0 0.2
2018-Jun-15 18:30N 39°55' W 074°03'0 0.0
2018-Jun-15 14:35N 39°55' W 074°03'0 0.7
2018-Jun-15 14:22N 39°55' W 074°03'0 0.3
2018-Jun-15 13:42N 39°55' W 074°03'0 0.8
2018-Jun-15 13:21N 39°55' W 074°03'0 0.4
2018-Jun-15 12:26N 39°55' W 074°02'0 0.6
2018-Jun-15 11:39N 39°55' W 074°03'0 0.6
2018-Jun-15 11:29N 39°55' W 074°03'0 0.8
2018-Jun-15 10:59N 39°55' W 074°03'0 0.4
2018-Jun-15 10:28N 39°55' W 074°03'0 0.4
2018-Jun-15 09:59N 39°55' W 074°03'0 0.8
2018-Jun-15 09:23N 39°55' W 074°02'0 0.9
2018-Jun-15 08:54N 39°55' W 074°03'0 0.3
2018-Jun-15 08:29N 39°55' W 074°03'1 1.5
2018-Jun-15 07:57N 39°56' W 074°02'1 0.3
2018-Jun-15 05:07N 39°55' W 074°03'0 0.8
2018-Jun-15 04:53N 39°55' W 074°03'0 0.5
2018-Jun-15 04:29N 39°55' W 074°02'0 0.7
2018-Jun-15 04:00N 39°55' W 074°03'0 0.1
2018-Jun-15 03:26N 39°55' W 074°03'2 2.8
2018-Jun-15 02:47N 39°54' W 074°02'2 8.3
2018-Jun-15 02:30N 39°51' W 074°01'1 1.1
2018-Jun-15 01:57N 39°52' W 074°01'1 1.1
2018-Jun-15 01:24N 39°52' W 074°01'3 1.9
2018-Jun-14 23:58N 39°55' W 074°02'1 1.1
2018-Jun-14 23:27N 39°55' W 074°03'0 0.1
2018-Jun-14 20:19N 39°55' W 074°03'0 0.1
2018-Jun-14 19:00N 39°55' W 074°03'1 1.0
2018-Jun-14 18:30N 39°56' W 074°03'1 0.9
2018-Jun-14 17:52N 39°55' W 074°03'0 0.1
2018-Jun-14 16:50N 39°55' W 074°03'0 1.2
2018-Jun-14 16:30N 39°55' W 074°03'0 0.3
2018-Jun-14 15:38N 39°55' W 074°03'0 1.0
2018-Jun-14 15:30N 39°55' W 074°03'0 0.0
2018-Jun-14 12:00N 39°55' W 074°03'0 0.1
2018-Jun-14 11:19N 39°55' W 074°03'0 0.7
2018-Jun-14 10:58N 39°55' W 074°02'1 0.9
2018-Jun-14 10:21N 39°55' W 074°03'0 0.9
2018-Jun-14 10:00N 39°55' W 074°03'2 3.0
2018-Jun-14 09:28N 39°57' W 074°02'4 6.1
2018-Jun-14 08:52N 40°01' W 074°03'0 0.0
2018-Jun-14 08:30N 40°01' W 074°03'5 3.3
2018-Jun-14 06:56N 39°55' W 074°02'0 0.5
2018-Jun-14 06:30N 39°55' W 074°03'0 0.0
2018-Jun-13 23:34N 39°55' W 074°03'0 0.9
2018-Jun-13 23:16N 39°55' W 074°03'0 0.0
2018-Jun-13 20:02N 39°55' W 074°03'0 0.5
2018-Jun-13 20:00N 39°55' W 074°03'0 0.1
2018-Jun-13 19:14N 39°55' W 074°03'0 0.1
2018-Jun-13 18:50N 39°55' W 074°03'2 0.4
2018-Jun-13 14:45N 39°56' W 074°01'2 1.8
2018-Jun-13 13:44N 39°55' W 074°03'0 0.7
2018-Jun-13 13:30N 39°55' W 074°03'0 0.7
2018-Jun-13 12:50N 39°55' W 074°03'0 0.7
2018-Jun-13 12:26N 39°55' W 074°03'0 0.2
2018-Jun-13 11:48N 39°55' W 074°03'0 0.9
2018-Jun-13 11:28N 39°56' W 074°02'1 0.2
2018-Jun-13 08:14N 39°55' W 074°03'0 0.2
2018-Jun-13 08:00N 39°55' W 074°03'0 0.8
2018-Jun-13 07:30N 39°55' W 074°02'1 1.0
2018-Jun-13 06:58N 39°55' W 074°03'1 1.4
2018-Jun-13 05:59N 39°56' W 074°02'1 0.5
2018-Jun-13 03:21N 39°55' W 074°03'1 0.9
2018-Jun-13 02:46N 39°56' W 074°03'0 0.2
2018-Jun-13 01:41N 39°55' W 074°03'0 0.9
2018-Jun-13 01:30N 39°55' W 074°03'4 7.0
2018-Jun-13 01:00N 39°59' W 074°02'2 3.5
2018-Jun-13 00:30N 40°01' W 074°03'5 1.6
2018-Jun-12 21:06N 39°55' W 074°03'0 0.8
2018-Jun-12 20:56N 39°55' W 074°03'3 4.9
2018-Jun-12 20:23N 39°58' W 074°02'3 0.9
2018-Jun-12 17:14N 39°55' W 074°03'0 0.8
2018-Jun-12 16:59N 39°55' W 074°03'0 0.6
2018-Jun-12 16:07N 39°55' W 074°02'0 1.1
2018-Jun-12 15:43N 39°55' W 074°03'0 0.3
2018-Jun-12 15:29N 39°55' W 074°03'0 0.7
2018-Jun-12 14:50N 39°55' W 074°03'2 5.4
2018-Jun-12 14:29N 39°57' W 074°02'3 2.3
2018-Jun-12 13:02N 40°01' W 074°03'0 0.2
2018-Jun-12 12:58N 40°01' W 074°03'  
Track history (hours):
 
Tides and Currents Weather Stations Pressure Air Temp Water Temp Dewpoint Dewpoint Depression Visibility Wind Speed Wind Dir Waves Ship Positions

B. E. Lindholm

Owner: WEEKS MARINE, INC., CRANFORD, NJ. More information available from US FCC via Universal Licensing System.

Last reported at 2018-Jun-22 12:37 UTC. Time now 2018-Jun-22 13:21 UTC.
Position N 39°57' W 074°02'.

Length 91 m; draft 5.2 m.

Type: Dredging. MMSI: 368954410.

Date/timePositionNaut miles runAvg speedWind from/ knotsBaromVisibWave heightAir tempDewpointWater temp
2018-Jun-22 12:37N 39°57' W 074°02'2 8.7
2018-Jun-22 12:24N 39°55' W 074°02'0 0.8
2018-Jun-22 12:00N 39°55' W 074°03'0 0.1
2018-Jun-22 11:30N 39°55' W 074°03'0 0.7
2018-Jun-22 11:00N 39°55' W 074°03'3 7.0
2018-Jun-22 10:30N 39°59' W 074°03'2 2.8
2018-Jun-22 09:53N 40°01' W 074°03'0 0.0
2018-Jun-22 09:30N 40°01' W 074°03'0 0.0
2018-Jun-22 08:58N 40°01' W 074°03'1 2.6
2018-Jun-22 08:29N 39°59' W 074°02'4 8.4
2018-Jun-22 08:01N 39°55' W 074°03'0 0.6
2018-Jun-22 07:31N 39°55' W 074°02'0 0.7
2018-Jun-22 07:00N 39°55' W 074°03'0 0.1
2018-Jun-22 06:31N 39°55' W 074°03'0 0.8
2018-Jun-22 05:58N 39°55' W 074°02'510.8
2018-Jun-22 05:30N 40°00' W 074°03'0 0.3
2018-Jun-22 04:46N 40°01' W 074°03'0 0.0
2018-Jun-22 04:30N 40°01' W 074°03'0 0.1
2018-Jun-22 04:00N 40°01' W 074°03'2 3.3
2018-Jun-22 03:31N 39°59' W 074°03'4 7.0
2018-Jun-22 03:00N 39°55' W 074°03'0 0.2
2018-Jun-22 02:19N 39°55' W 074°03'0 0.6
2018-Jun-22 02:00N 39°55' W 074°03'0 0.4
2018-Jun-22 01:27N 39°55' W 074°02'5 9.6
2018-Jun-22 00:55N 40°01' W 074°03'0 0.0
2018-Jun-22 00:13N 40°01' W 074°03'0 0.2
2018-Jun-22 00:00N 40°01' W 074°03'0 0.1
2018-Jun-21 23:26N 40°01' W 074°03'1 0.8
2018-Jun-21 22:39N 40°00' W 074°03'511.2
2018-Jun-21 22:13N 39°55' W 074°03'0 0.6
2018-Jun-21 21:56N 39°55' W 074°03'0 0.4
2018-Jun-21 21:30N 39°55' W 074°03'2 4.7
2018-Jun-21 21:00N 39°58' W 074°02'3 1.1
2018-Jun-21 18:38N 39°55' W 074°03'0 0.8
2018-Jun-21 18:28N 39°55' W 074°03'0 0.6
2018-Jun-21 18:00N 39°55' W 074°03'0 0.1
2018-Jun-21 17:22N 39°55' W 074°03'0 0.4
2018-Jun-21 16:53N 39°55' W 074°03'0 0.2
2018-Jun-21 16:13N 39°55' W 074°03'0 0.7
2018-Jun-21 15:47N 39°55' W 074°02'0 0.6
2018-Jun-21 15:29N 39°55' W 074°03'0 0.8
2018-Jun-21 14:58N 39°55' W 074°03'0 0.7
2018-Jun-21 14:30N 39°55' W 074°03'0 0.1
2018-Jun-21 13:59N 39°55' W 074°03'3510.4
2018-Jun-21 10:39N 40°30' W 073°56'214.4
2018-Jun-21 10:30N 40°31' W 073°59'712.9
2018-Jun-21 10:00N 40°36' W 074°03'3 7.0
2018-Jun-21 09:30N 40°40' W 074°04'0 0.0
2018-Jun-21 08:58N 40°40' W 074°04'0 0.0
2018-Jun-21 08:28N 40°40' W 074°04'0 0.0
2018-Jun-21 07:58N 40°40' W 074°04'0 0.0
2018-Jun-21 07:28N 40°40' W 074°04'0 0.0
2018-Jun-21 06:58N 40°40' W 074°04'0 0.0
2018-Jun-21 06:28N 40°40' W 074°04'0 0.0
2018-Jun-21 05:58N 40°40' W 074°04'0 0.0
2018-Jun-21 05:28N 40°40' W 074°04'0 0.0
2018-Jun-21 04:58N 40°40' W 074°04'0 0.0
2018-Jun-21 04:28N 40°40' W 074°04'0 0.0
2018-Jun-21 03:58N 40°40' W 074°04'0 0.0
2018-Jun-21 03:28N 40°40' W 074°04'0 0.0
2018-Jun-21 02:58N 40°40' W 074°04'0 0.0
2018-Jun-21 02:28N 40°40' W 074°04'0 0.0
2018-Jun-21 01:58N 40°40' W 074°04'0 0.0
2018-Jun-21 01:25N 40°40' W 074°04'0 0.1
2018-Jun-21 01:01N 40°40' W 074°04'2 4.8
2018-Jun-21 00:30N 40°39' W 074°07'3 0.4
2018-Jun-20 15:35N 40°38' W 074°12'0 0.1
2018-Jun-20 15:29N 40°38' W 074°12'0 0.0
2018-Jun-20 14:59N 40°38' W 074°12'0 0.0
2018-Jun-20 13:29N 40°38' W 074°12'0 0.0
2018-Jun-20 12:33N 40°38' W 074°12'0 0.0
2018-Jun-20 12:30N 40°38' W 074°12'9 5.7
2018-Jun-20 10:55N 40°29' W 074°14'5 8.5
2018-Jun-20 10:22N 40°30' W 074°08'511.1
2018-Jun-20 09:57N 40°29' W 074°02'0 1.1
2018-Jun-20 09:30N 40°29' W 074°01'2 5.0
2018-Jun-20 09:00N 40°28' W 073°58'26 6.4
2018-Jun-20 04:57N 40°03' W 074°01'3 5.1
2018-Jun-20 04:27N 40°01' W 074°03'0 0.0
2018-Jun-20 04:00N 40°01' W 074°03'0 0.0
2018-Jun-20 03:30N 40°01' W 074°03'0 0.0
2018-Jun-20 02:59N 40°01' W 074°03'0 0.3
2018-Jun-20 02:29N 40°01' W 074°03'610.2
2018-Jun-20 01:57N 39°55' W 074°03'0 0.7
2018-Jun-20 01:30N 39°55' W 074°03'0 0.3
2018-Jun-20 00:54N 39°55' W 074°03'0 0.3
2018-Jun-20 00:29N 39°55' W 074°03'1 1.8
2018-Jun-20 00:00N 39°56' W 074°03'5 9.1
2018-Jun-19 23:30N 40°01' W 074°03'0 0.1
2018-Jun-19 23:00N 40°01' W 074°03'0 0.0
2018-Jun-19 22:30N 40°01' W 074°03'0 0.1
2018-Jun-19 22:00N 40°01' W 074°03'6 6.2
2018-Jun-19 21:05N 39°55' W 074°03'0 1.0
2018-Jun-19 21:00N 39°55' W 074°03'0 0.6
2018-Jun-19 20:29N 39°55' W 074°03'0 0.5
2018-Jun-19 19:59N 39°55' W 074°02'0 0.6
2018-Jun-19 19:30N 39°55' W 074°03'0 0.3
2018-Jun-19 18:55N 39°55' W 074°03'0 0.6
2018-Jun-19 18:29N 39°55' W 074°03'0 0.4
2018-Jun-19 18:00N 39°55' W 074°02'5 8.2
2018-Jun-19 17:22N 40°01' W 074°03'5 2.4
2018-Jun-19 15:11N 39°55' W 074°02'0 1.0
2018-Jun-19 15:00N 39°55' W 074°03'0 0.5
2018-Jun-19 14:11N 39°55' W 074°03'0 0.2
2018-Jun-19 13:59N 39°55' W 074°03'0 0.6
2018-Jun-19 13:30N 39°55' W 074°03'0 0.0
2018-Jun-19 08:10N 39°55' W 074°03'0 0.8
2018-Jun-19 08:00N 39°55' W 074°03'0 0.6
2018-Jun-19 07:26N 39°55' W 074°03'0 0.2
2018-Jun-19 07:00N 39°55' W 074°03'0 0.5
2018-Jun-19 06:22N 39°55' W 074°03'0 0.7
2018-Jun-19 05:52N 39°55' W 074°03'1 3.4
2018-Jun-19 05:29N 39°57' W 074°02'2 0.5
2018-Jun-19 01:39N 39°55' W 074°03'0 0.7
2018-Jun-19 01:26N 39°55' W 074°03'0 0.6
2018-Jun-19 00:58N 39°55' W 074°03'3 5.4
2018-Jun-19 00:30N 39°58' W 074°02'3 5.2
2018-Jun-18 23:59N 40°01' W 074°03'0 0.0
2018-Jun-18 23:24N 40°01' W 074°03'0 0.0
2018-Jun-18 22:32N 40°01' W 074°03'0 0.6
2018-Jun-18 22:25N 40°01' W 074°03'6 9.9
2018-Jun-18 21:50N 39°55' W 074°03'0 0.2
2018-Jun-18 21:18N 39°55' W 074°03'0 0.5
2018-Jun-18 20:59N 39°55' W 074°03'0 0.4
2018-Jun-18 20:25N 39°55' W 074°03'0 0.8
2018-Jun-18 19:59N 39°55' W 074°03'0 0.5
2018-Jun-18 19:07N 39°56' W 074°03'0 0.9
2018-Jun-18 18:54N 39°56' W 074°03'0 0.7
2018-Jun-18 18:30N 39°55' W 074°03'4 2.5
2018-Jun-18 16:55N 39°59' W 074°02'1 1.9
2018-Jun-18 16:20N 40°01' W 074°03'0 0.6
2018-Jun-18 15:55N 40°01' W 074°03'0 0.0
2018-Jun-18 15:27N 40°01' W 074°03'0 0.0
2018-Jun-18 15:00N 40°01' W 074°03'5 4.3
2018-Jun-18 13:47N 39°55' W 074°03'0 0.2
2018-Jun-18 12:31N 39°55' W 074°02'0 0.4
2018-Jun-18 12:30N 39°55' W 074°02'0 0.7
2018-Jun-18 12:00N 39°55' W 074°03'1 1.3
2018-Jun-18 11:30N 39°56' W 074°02'5 9.7
2018-Jun-18 11:00N 40°01' W 074°03'0 0.0
2018-Jun-18 10:30N 40°01' W 074°03'0 0.0
2018-Jun-18 10:00N 40°01' W 074°03'0 0.0
2018-Jun-18 09:29N 40°01' W 074°03'0 0.6
2018-Jun-18 09:00N 40°01' W 074°03'610.9
2018-Jun-18 08:30N 39°55' W 074°03'0 0.2
2018-Jun-18 08:00N 39°55' W 074°03'0 0.1
2018-Jun-18 07:29N 39°55' W 074°03'0 0.5
2018-Jun-18 07:00N 39°55' W 074°03'0 0.6
2018-Jun-18 06:30N 39°55' W 074°03'1 2.5
2018-Jun-18 06:01N 39°57' W 074°02'4 7.9
2018-Jun-18 05:29N 40°01' W 074°02'0 0.4
2018-Jun-18 04:57N 40°01' W 074°03'0 0.0
2018-Jun-18 03:51N 40°01' W 074°03'5 5.6
2018-Jun-18 02:53N 39°55' W 074°03'0 0.3
2018-Jun-18 02:21N 39°55' W 074°03'0 0.5
2018-Jun-18 01:45N 39°55' W 074°03'0 0.7
2018-Jun-18 01:30N 39°55' W 074°03'0 0.6
2018-Jun-18 01:00N 39°55' W 074°03'0 0.0
2018-Jun-17 21:47N 39°56' W 074°03'0 0.4
2018-Jun-17 21:30N 39°55' W 074°03'0 0.6
2018-Jun-17 20:57N 39°55' W 074°03'0 0.1
2018-Jun-17 20:30N 39°55' W 074°03'0 0.5
2018-Jun-17 19:59N 39°55' W 074°03'3 6.3
2018-Jun-17 19:30N 39°58' W 074°02'2 4.4
2018-Jun-17 18:59N 40°01' W 074°03'0 0.0
2018-Jun-17 18:30N 40°01' W 074°03'0 0.0
2018-Jun-17 18:00N 40°01' W 074°03'0 0.2
2018-Jun-17 17:30N 40°01' W 074°03'5 9.8
2018-Jun-17 16:59N 39°55' W 074°03'0 0.8
2018-Jun-17 16:28N 39°55' W 074°03'0 0.4
2018-Jun-17 16:00N 39°55' W 074°03'0 0.5
2018-Jun-17 15:30N 39°55' W 074°03'2 4.2
2018-Jun-17 15:00N 39°57' W 074°02'3 3.8
2018-Jun-17 14:11N 40°01' W 074°03'0 0.0
2018-Jun-17 13:59N 40°01' W 074°03'0 0.1
2018-Jun-17 13:10N 40°01' W 074°03'0 0.2
2018-Jun-17 13:00N 40°01' W 074°03'2 4.6
2018-Jun-17 12:29N 39°58' W 074°02'3 5.7
2018-Jun-17 11:58N 39°55' W 074°03'0 0.6
2018-Jun-17 11:30N 39°55' W 074°03'0 0.2
2018-Jun-17 10:58N 39°55' W 074°03'0 0.7
2018-Jun-17 10:22N 39°55' W 074°02'510.6
2018-Jun-17 09:53N 40°00' W 074°03'0 0.4
2018-Jun-17 09:28N 40°01' W 074°03'6 2.6
2018-Jun-17 07:21N 39°55' W 074°03'0 0.7
2018-Jun-17 06:58N 39°55' W 074°03'0 0.4
2018-Jun-17 06:27N 39°55' W 074°02'0 0.6
2018-Jun-17 05:44N 39°55' W 074°03'0 0.8
2018-Jun-17 05:26N 39°55' W 074°03'0 0.6
2018-Jun-17 05:00N 39°55' W 074°03'1 2.7
2018-Jun-17 04:29N 39°57' W 074°02'4 8.0
2018-Jun-17 04:00N 40°01' W 074°03'0 0.0
2018-Jun-17 03:30N 40°01' W 074°03'6 2.3
2018-Jun-17 01:06N 39°55' W 074°03'0 0.7
2018-Jun-17 00:57N 39°55' W 074°03'0 0.6
2018-Jun-17 00:27N 39°55' W 074°03'2 4.8
2018-Jun-17 00:00N 39°57' W 074°02'3 6.2
2018-Jun-16 23:29N 40°01' W 074°03'0 0.0
2018-Jun-16 23:00N 40°01' W 074°03'0 0.0
2018-Jun-16 22:30N 40°01' W 074°03'0 0.0
2018-Jun-16 22:00N 40°01' W 074°03'0 0.4
2018-Jun-16 21:30N 40°01' W 074°03'510.5
2018-Jun-16 21:00N 39°55' W 074°02'0 0.5
2018-Jun-16 20:21N 39°55' W 074°03'0 0.3
2018-Jun-16 19:59N 39°55' W 074°03'0 0.6
2018-Jun-16 19:30N 39°55' W 074°03'1 1.1
2018-Jun-16 19:00N 39°56' W 074°02'5 9.6
2018-Jun-16 18:30N 40°01' W 074°03'0 0.1
2018-Jun-16 18:00N 40°01' W 074°03'0 0.0
2018-Jun-16 17:30N 40°01' W 074°03'0 0.0
2018-Jun-16 16:58N 40°01' W 074°03'5 6.5
2018-Jun-16 16:11N 39°55' W 074°03'0 1.2
2018-Jun-16 16:00N 39°55' W 074°03'0 0.2
2018-Jun-16 15:29N 39°55' W 074°03'0 0.7
2018-Jun-16 15:00N 39°55' W 074°02'0 0.5
2018-Jun-16 14:26N 39°55' W 074°03'0 0.1
2018-Jun-16 13:54N 39°55' W 074°03'0 0.6
2018-Jun-16 13:22N 39°55' W 074°02'3 7.8
2018-Jun-16 12:57N 39°59' W 074°02'2 1.7
2018-Jun-16 11:49N 40°01' W 074°03'0 0.0
2018-Jun-16 11:30N 40°01' W 074°03'1 0.9
2018-Jun-16 10:55N 40°00' W 074°02'511.2
2018-Jun-16 10:30N 39°56' W 074°03'1 1.4
2018-Jun-16 10:00N 39°55' W 074°03'0 0.8
2018-Jun-16 09:30N 39°55' W 074°03'0 0.2
2018-Jun-16 09:00N 39°55' W 074°03'0 0.2
2018-Jun-16 08:30N 39°55' W 074°03'0 0.7
2018-Jun-16 08:00N 39°55' W 074°02'0 0.6
2018-Jun-16 07:28N 39°55' W 074°03'0 0.1
2018-Jun-16 07:00N 39°55' W 074°03'0 0.7
2018-Jun-16 06:30N 39°55' W 074°02'5 8.7
2018-Jun-16 05:55N 40°01' W 074°03'5 2.3
2018-Jun-16 03:39N 39°55' W 074°02'0 0.9
2018-Jun-16 03:27N 39°55' W 074°03'0 0.7
2018-Jun-16 02:59N 39°55' W 074°03'0 0.6
2018-Jun-16 02:29N 39°55' W 074°03'0 0.1
2018-Jun-16 01:51N 39°55' W 074°03'0 0.8
2018-Jun-16 01:28N 39°55' W 074°03'1 1.2
2018-Jun-16 00:48N 39°56' W 074°02'310.6
2018-Jun-16 00:29N 39°59' W 074°02'2 2.0
2018-Jun-15 23:40N 40°01' W 074°03'5 3.2
2018-Jun-15 22:03N 39°55' W 074°03'0 2.3
2018-Jun-15 22:00N 39°55' W 074°03'0 0.6
2018-Jun-15 21:30N 39°55' W 074°03'0 0.9
2018-Jun-15 20:58N 39°55' W 074°03'0 0.6
2018-Jun-15 20:30N 39°55' W 074°03'0 0.1
2018-Jun-15 19:54N 39°55' W 074°03'0 0.1
2018-Jun-15 19:12N 39°55' W 074°03'0 0.7
2018-Jun-15 18:59N 39°55' W 074°03'0 0.2
2018-Jun-15 18:30N 39°55' W 074°03'0 0.0
2018-Jun-15 14:35N 39°55' W 074°03'0 0.7
2018-Jun-15 14:22N 39°55' W 074°03'0 0.3
2018-Jun-15 13:42N 39°55' W 074°03'0 0.8
2018-Jun-15 13:21N 39°55' W 074°03'0 0.4
2018-Jun-15 12:26N 39°55' W 074°02'0 0.6
2018-Jun-15 11:39N 39°55' W 074°03'0 0.6
2018-Jun-15 11:29N 39°55' W 074°03'0 0.8
2018-Jun-15 10:59N 39°55' W 074°03'0 0.4
2018-Jun-15 10:28N 39°55' W 074°03'0 0.4
2018-Jun-15 09:59N 39°55' W 074°03'0 0.8
2018-Jun-15 09:23N 39°55' W 074°02'0 0.9
2018-Jun-15 08:54N 39°55' W 074°03'0 0.3
2018-Jun-15 08:29N 39°55' W 074°03'1 1.5
2018-Jun-15 07:57N 39°56' W 074°02'1 0.3
2018-Jun-15 05:07N 39°55' W 074°03'0 0.8
2018-Jun-15 04:53N 39°55' W 074°03'0 0.5
2018-Jun-15 04:29N 39°55' W 074°02'0 0.7
2018-Jun-15 04:00N 39°55' W 074°03'0 0.1
2018-Jun-15 03:26N 39°55' W 074°03'2 2.8
2018-Jun-15 02:47N 39°54' W 074°02'2 8.3
2018-Jun-15 02:30N 39°51' W 074°01'1 1.1
2018-Jun-15 01:57N 39°52' W 074°01'1 1.1
2018-Jun-15 01:24N 39°52' W 074°01'3 1.9
2018-Jun-14 23:58N 39°55' W 074°02'1 1.1
2018-Jun-14 23:27N 39°55' W 074°03'0 0.1
2018-Jun-14 20:19N 39°55' W 074°03'0 0.1
2018-Jun-14 19:00N 39°55' W 074°03'1 1.0
2018-Jun-14 18:30N 39°56' W 074°03'1 0.9
2018-Jun-14 17:52N 39°55' W 074°03'0 0.1
2018-Jun-14 16:50N 39°55' W 074°03'0 1.2
2018-Jun-14 16:30N 39°55' W 074°03'0 0.3
2018-Jun-14 15:38N 39°55' W 074°03'0 1.0
2018-Jun-14 15:30N 39°55' W 074°03'0 0.0
2018-Jun-14 12:00N 39°55' W 074°03'0 0.1
2018-Jun-14 11:19N 39°55' W 074°03'0 0.7
2018-Jun-14 10:58N 39°55' W 074°02'1 0.9
2018-Jun-14 10:21N 39°55' W 074°03'0 0.9
2018-Jun-14 10:00N 39°55' W 074°03'2 3.0
2018-Jun-14 09:28N 39°57' W 074°02'4 6.1
2018-Jun-14 08:52N 40°01' W 074°03'0 0.0
2018-Jun-14 08:30N 40°01' W 074°03'5 3.3
2018-Jun-14 06:56N 39°55' W 074°02'0 0.5
2018-Jun-14 06:30N 39°55' W 074°03'0 0.0
2018-Jun-13 23:34N 39°55' W 074°03'0 0.9
2018-Jun-13 23:16N 39°55' W 074°03'0 0.0
2018-Jun-13 20:02N 39°55' W 074°03'0 0.5
2018-Jun-13 20:00N 39°55' W 074°03'0 0.1
2018-Jun-13 19:14N 39°55' W 074°03'0 0.1
2018-Jun-13 18:50N 39°55' W 074°03'2 0.4
2018-Jun-13 14:45N 39°56' W 074°01'2 1.8
2018-Jun-13 13:44N 39°55' W 074°03'0 0.7
2018-Jun-13 13:30N 39°55' W 074°03'0 0.7
2018-Jun-13 12:50N 39°55' W 074°03'0 0.7
2018-Jun-13 12:26N 39°55' W 074°03'0 0.2
2018-Jun-13 11:48N 39°55' W 074°03'0 0.9
2018-Jun-13 11:28N 39°56' W 074°02'1 0.2
2018-Jun-13 08:14N 39°55' W 074°03'0 0.2
2018-Jun-13 08:00N 39°55' W 074°03'0 0.8
2018-Jun-13 07:30N 39°55' W 074°02'1 1.0
2018-Jun-13 06:58N 39°55' W 074°03'1 1.4
2018-Jun-13 05:59N 39°56' W 074°02'1 0.5
2018-Jun-13 03:21N 39°55' W 074°03'1 0.9
2018-Jun-13 02:46N 39°56' W 074°03'0 0.2
2018-Jun-13 01:41N 39°55' W 074°03'0 0.9
2018-Jun-13 01:30N 39°55' W 074°03'4 7.0
2018-Jun-13 01:00N 39°59' W 074°02'2 3.5
2018-Jun-13 00:30N 40°01' W 074°03'5 1.6
2018-Jun-12 21:06N 39°55' W 074°03'0 0.8
2018-Jun-12 20:56N 39°55' W 074°03'3 4.9
2018-Jun-12 20:23N 39°58' W 074°02'3 0.9
2018-Jun-12 17:14N 39°55' W 074°03'0 0.8
2018-Jun-12 16:59N 39°55' W 074°03'0 0.6
2018-Jun-12 16:07N 39°55' W 074°02'0 1.1
2018-Jun-12 15:43N 39°55' W 074°03'0 0.3
2018-Jun-12 15:29N 39°55' W 074°03'0 0.7
2018-Jun-12 14:50N 39°55' W 074°03'2 5.4
2018-Jun-12 14:29N 39°57' W 074°02'3 2.3
2018-Jun-12 13:02N 40°01' W 074°03'0 0.2
2018-Jun-12 12:58N 40°01' W 074°03'  

Dump ship's entire track history